createdAt,value
2023-03-31T00:00:01.349Z,41.68
2023-03-31T00:03:10.603Z,42.05
2023-03-31T00:06:19.153Z,42.07
2023-03-31T00:09:23.564Z,41.86
2023-03-31T00:12:27.392Z,41.72
2023-03-31T00:15:31.257Z,41.84
2023-03-31T00:18:36.636Z,42.07
2023-03-31T00:21:43.050Z,42.21
2023-03-31T00:24:46.682Z,42.11
2023-03-31T00:27:53.058Z,42.17
2023-03-31T00:31:02.496Z,42.56
2023-03-31T00:34:08.607Z,42.25
2023-03-31T00:37:16.285Z,42.49
2023-03-31T00:40:20.140Z,42.82
2023-03-31T00:43:30.321Z,42.64
2023-03-31T00:46:36.721Z,42.82
2023-03-31T00:49:45.586Z,43.57
2023-03-31T00:52:52.910Z,43.25
2023-03-31T00:56:00.697Z,43.95
2023-03-31T00:59:09.212Z,44.00
2023-03-31T01:02:15.301Z,43.48
2023-03-31T01:05:22.527Z,43.92
2023-03-31T01:08:28.573Z,44.10
2023-03-31T01:11:33.103Z,44.00
2023-03-31T01:14:37.843Z,44.02
2023-03-31T01:17:45.771Z,45.25
2023-03-31T01:21:18.994Z,45.27
2023-03-31T01:24:52.976Z,45.23
2023-03-31T01:28:10.128Z,45.64
2023-03-31T01:31:39.241Z,45.24
2023-03-31T01:35:19.945Z,45.11
2023-03-31T01:39:05.337Z,46.39
2023-03-31T01:42:16.642Z,45.48
2023-03-31T01:45:30.692Z,46.22
2023-03-31T01:48:47.582Z,45.80
2023-03-31T01:51:58.631Z,45.97
2023-03-31T01:55:08.414Z,46.32
2023-03-31T01:58:18.606Z,46.78
2023-03-31T02:01:27.308Z,46.74
2023-03-31T02:04:34.422Z,47.71
2023-03-31T02:07:43.086Z,48.49
2023-03-31T02:10:48.034Z,47.92
2023-03-31T02:13:56.247Z,47.50
2023-03-31T02:17:02.659Z,47.41
2023-03-31T02:20:11.932Z,47.31
2023-03-31T02:23:19.892Z,47.04
2023-03-31T02:26:27.728Z,46.98
2023-03-31T02:29:35.684Z,46.74
2023-03-31T02:32:41.679Z,46.72
2023-03-31T02:35:45.419Z,46.51
2023-03-31T02:38:53.694Z,46.36
2023-03-31T02:41:58.674Z,46.30
2023-03-31T02:45:06.418Z,45.90
2023-03-31T02:48:17.558Z,47.05
2023-03-31T02:51:41.471Z,46.78
2023-03-31T02:55:30.931Z,46.63
2023-03-31T02:59:05.125Z,46.48
2023-03-31T03:02:20.333Z,46.02
2023-03-31T03:05:35.942Z,46.46
2023-03-31T03:09:09.744Z,46.24
2023-03-31T03:12:22.950Z,46.66
2023-03-31T03:15:31.964Z,46.63
2023-03-31T03:18:37.331Z,46.02
2023-03-31T03:21:41.724Z,45.33
2023-03-31T03:24:45.466Z,45.00
2023-03-31T03:27:49.548Z,45.04
2023-03-31T03:30:53.770Z,45.26
2023-03-31T03:33:58.872Z,45.91
2023-03-31T03:37:02.483Z,45.29
2023-03-31T03:40:07.959Z,45.19
2023-03-31T03:43:11.557Z,45.98
2023-03-31T03:46:15.271Z,47.38
2023-03-31T03:49:20.594Z,47.91
2023-03-31T03:52:24.195Z,48.42
2023-03-31T03:55:27.683Z,48.03
2023-03-31T03:58:31.270Z,48.32
2023-03-31T04:01:34.814Z,47.43
2023-03-31T04:04:40.072Z,47.40
2023-03-31T04:07:43.898Z,47.26
2023-03-31T04:10:49.254Z,46.67
2023-03-31T04:13:52.945Z,46.12
2023-03-31T04:16:58.801Z,46.26
2023-03-31T04:20:08.025Z,45.93
2023-03-31T04:23:15.106Z,47.72
2023-03-31T04:26:26.927Z,48.91
2023-03-31T04:29:33.936Z,49.60
2023-03-31T04:32:37.709Z,48.53
2023-03-31T04:36:00.293Z,48.88
2023-03-31T04:39:03.924Z,49.19
2023-03-31T04:42:07.512Z,49.72
2023-03-31T04:45:12.480Z,48.67
2023-03-31T04:48:16.050Z,49.50
2023-03-31T04:51:21.429Z,49.08
2023-03-31T04:54:24.981Z,49.00
2023-03-31T04:57:28.816Z,48.02
2023-03-31T05:00:32.745Z,47.75
2023-03-31T05:03:37.068Z,47.76
2023-03-31T05:06:42.604Z,47.34
2023-03-31T05:09:47.324Z,46.99
2023-03-31T05:12:51.350Z,48.00
2023-03-31T05:15:55.285Z,47.14
2023-03-31T05:18:59.288Z,47.01
2023-03-31T05:22:04.705Z,47.34
2023-03-31T05:25:12.038Z,46.36
2023-03-31T05:28:15.968Z,45.95
2023-03-31T05:31:20.139Z,46.27
2023-03-31T05:34:24.168Z,45.80
2023-03-31T05:37:29.700Z,45.53
2023-03-31T05:40:33.678Z,45.67
2023-03-31T05:43:37.965Z,45.78
2023-03-31T05:46:41.832Z,46.16
2023-03-31T05:49:45.988Z,46.26
2023-03-31T05:52:51.406Z,45.55
2023-03-31T05:56:00.278Z,45.79
2023-03-31T05:59:05.295Z,45.30
2023-03-31T06:02:10.252Z,46.06
2023-03-31T06:05:14.247Z,46.86
2023-03-31T06:08:19.668Z,46.50
2023-03-31T06:11:24.407Z,45.69
2023-03-31T06:14:29.601Z,45.52
2023-03-31T06:17:33.562Z,45.93
2023-03-31T06:20:37.807Z,45.74
2023-03-31T06:23:44.667Z,45.61
2023-03-31T06:26:48.711Z,45.16
2023-03-31T06:29:52.608Z,46.43
2023-03-31T06:32:56.788Z,47.38
2023-03-31T06:36:02.088Z,49.32
2023-03-31T06:39:07.679Z,50.06
2023-03-31T06:42:11.682Z,49.90
2023-03-31T06:45:18.128Z,49.53
2023-03-31T06:48:22.267Z,48.79
2023-03-31T06:51:26.323Z,48.19
2023-03-31T06:54:31.818Z,48.03
2023-03-31T06:57:37.071Z,47.58
2023-03-31T07:00:41.162Z,47.51
2023-03-31T07:03:45.066Z,46.23
2023-03-31T07:06:49.004Z,46.13
2023-03-31T07:09:56.389Z,45.54
2023-03-31T07:13:01.875Z,44.91
2023-03-31T07:16:08.464Z,44.85
2023-03-31T07:19:13.062Z,43.27
2023-03-31T07:22:17.209Z,42.26
2023-03-31T07:25:22.668Z,41.07
2023-03-31T07:28:26.524Z,40.14
2023-03-31T07:31:30.433Z,39.98
2023-03-31T07:34:37.404Z,39.52
2023-03-31T07:37:43.621Z,38.84
2023-03-31T07:40:58.575Z,38.13
2023-03-31T07:44:10.262Z,38.27
2023-03-31T07:47:14.222Z,38.13
2023-03-31T07:50:18.543Z,37.47
2023-03-31T07:53:23.744Z,37.70
2023-03-31T07:56:29.205Z,36.88
2023-03-31T07:59:33.345Z,36.50
2023-03-31T08:02:37.547Z,35.85
2023-03-31T08:05:41.546Z,36.74
2023-03-31T08:08:45.536Z,35.82
2023-03-31T08:11:51.161Z,36.39
2023-03-31T08:14:55.141Z,36.86
2023-03-31T08:17:59.116Z,36.97
2023-03-31T08:21:03.060Z,35.98
2023-03-31T08:24:07.484Z,37.31
2023-03-31T08:27:12.832Z,37.17
2023-03-31T08:30:17.203Z,36.29
2023-03-31T08:33:21.181Z,35.65
2023-03-31T08:36:25.171Z,36.45
2023-03-31T08:39:29.181Z,35.93
2023-03-31T08:42:40.501Z,34.99
2023-03-31T08:45:48.510Z,35.03
2023-03-31T08:48:55.330Z,35.17
2023-03-31T08:52:03.463Z,34.94
2023-03-31T08:55:14.609Z,34.77
2023-03-31T08:58:33.886Z,34.19
2023-03-31T09:01:55.603Z,35.47
2023-03-31T09:05:46.130Z,36.10
2023-03-31T09:09:04.972Z,35.59
2023-03-31T09:12:13.644Z,36.21
2023-03-31T09:15:26.507Z,35.61
2023-03-31T09:18:35.798Z,34.93
2023-03-31T09:21:44.901Z,34.63
2023-03-31T09:24:57.668Z,33.94
2023-03-31T09:28:04.226Z,33.13
2023-03-31T09:31:16.311Z,34.20
2023-03-31T09:34:31.736Z,34.84
2023-03-31T09:37:35.674Z,35.37
2023-03-31T09:40:40.051Z,34.55
2023-03-31T09:43:46.410Z,34.37
2023-03-31T09:46:53.011Z,33.70
2023-03-31T09:49:56.966Z,33.80
2023-03-31T09:53:03.026Z,34.01
2023-03-31T09:56:11.651Z,34.20
2023-03-31T09:59:18.667Z,34.44
2023-03-31T10:02:40.886Z,34.20
2023-03-31T10:05:52.344Z,33.83
2023-03-31T10:08:59.854Z,33.47
2023-03-31T10:12:07.545Z,33.07
2023-03-31T10:15:21.260Z,32.39
2023-03-31T10:18:35.859Z,32.29
2023-03-31T10:21:40.370Z,32.67
2023-03-31T10:24:46.324Z,31.80
2023-03-31T10:27:54.449Z,31.45
2023-03-31T10:31:01.697Z,31.60
2023-03-31T10:34:12.846Z,31.24
2023-03-31T10:37:20.305Z,31.21
2023-03-31T10:40:26.804Z,30.48
2023-03-31T10:43:32.110Z,30.88
2023-03-31T10:46:44.771Z,31.15
2023-03-31T10:49:57.938Z,30.34
2023-03-31T10:53:07.754Z,30.60
2023-03-31T10:56:24.543Z,29.82
2023-03-31T10:59:44.007Z,29.92
2023-03-31T11:03:19.286Z,29.59
2023-03-31T11:06:31.703Z,31.06
2023-03-31T11:09:45.588Z,31.63
2023-03-31T11:12:54.425Z,31.78
2023-03-31T11:16:05.127Z,32.33
2023-03-31T11:19:21.483Z,32.12
2023-03-31T11:22:33.469Z,32.66
2023-03-31T11:25:46.119Z,32.88
2023-03-31T11:29:02.984Z,32.50
2023-03-31T11:32:31.619Z,32.39
2023-03-31T11:36:05.583Z,31.95
2023-03-31T11:39:24.365Z,31.41
2023-03-31T11:42:31.562Z,31.33
2023-03-31T11:45:40.109Z,31.79
2023-03-31T11:48:48.201Z,32.04
2023-03-31T11:51:56.120Z,31.93
2023-03-31T11:55:05.161Z,32.04
2023-03-31T11:58:14.666Z,31.69
2023-03-31T12:01:26.922Z,31.83
2023-03-31T12:04:36.902Z,31.62
2023-03-31T12:07:45.522Z,31.75
2023-03-31T12:10:56.635Z,31.54
2023-03-31T12:14:10.841Z,30.54
2023-03-31T12:17:16.762Z,30.26
2023-03-31T12:20:30.830Z,29.36
2023-03-31T12:23:41.184Z,29.21
2023-03-31T12:26:57.917Z,29.25
2023-03-31T12:30:04.739Z,29.39
2023-03-31T12:33:18.626Z,29.60
2023-03-31T12:36:35.404Z,29.76
2023-03-31T12:39:52.951Z,29.63
2023-03-31T12:43:32.856Z,29.25
2023-03-31T12:47:05.751Z,28.57
2023-03-31T12:50:37.885Z,28.34
2023-03-31T12:53:55.867Z,28.19
2023-03-31T12:57:15.043Z,28.24
2023-03-31T13:00:26.649Z,28.15
2023-03-31T13:03:49.206Z,27.99
2023-03-31T13:07:00.084Z,28.00
2023-03-31T13:10:29.015Z,28.11
2023-03-31T13:13:32.909Z,28.16
2023-03-31T13:16:38.404Z,27.74
2023-03-31T13:19:43.585Z,28.67
2023-03-31T13:22:49.804Z,28.61
2023-03-31T13:25:54.312Z,29.03
2023-03-31T13:29:13.686Z,28.97
2023-03-31T13:32:24.390Z,28.99
2023-03-31T13:35:34.301Z,29.11
2023-03-31T13:38:53.623Z,29.58
2023-03-31T13:42:08.062Z,29.78
2023-03-31T13:45:33.418Z,30.17
2023-03-31T13:48:49.860Z,29.69
2023-03-31T13:51:57.486Z,29.27
2023-03-31T13:55:24.200Z,29.74
2023-03-31T13:58:46.010Z,29.95
2023-03-31T14:02:29.085Z,29.80
2023-03-31T14:05:39.020Z,30.21
2023-03-31T14:08:52.088Z,29.77
2023-03-31T14:11:56.942Z,29.96
2023-03-31T14:15:01.348Z,29.63
2023-03-31T14:18:07.289Z,30.11
2023-03-31T14:21:22.961Z,29.79
2023-03-31T14:24:33.122Z,29.99
2023-03-31T14:27:51.565Z,30.11
2023-03-31T14:31:06.114Z,29.87
2023-03-31T14:34:42.102Z,30.40
2023-03-31T14:37:49.265Z,30.79
2023-03-31T14:40:56.545Z,30.99
2023-03-31T14:44:04.406Z,31.29
2023-03-31T14:47:13.550Z,31.53
2023-03-31T14:50:20.654Z,31.43
2023-03-31T14:53:28.450Z,31.55
2023-03-31T14:56:37.696Z,31.70
2023-03-31T14:59:41.788Z,31.42
2023-03-31T15:02:47.987Z,31.14
2023-03-31T15:05:53.828Z,31.20
2023-03-31T15:08:59.769Z,30.88
2023-03-31T15:12:08.708Z,31.63
2023-03-31T15:15:15.232Z,31.95
2023-03-31T15:18:20.069Z,31.98
2023-03-31T15:21:26.348Z,31.70
2023-03-31T15:24:32.270Z,31.78
2023-03-31T15:27:39.594Z,31.68
2023-03-31T15:30:45.281Z,31.56
2023-03-31T15:33:49.777Z,31.47
2023-03-31T15:36:57.173Z,31.69
2023-03-31T15:40:08.048Z,31.55
2023-03-31T15:43:25.541Z,31.51
2023-03-31T15:46:58.437Z,31.67
2023-03-31T15:50:14.501Z,31.71
2023-03-31T15:53:29.475Z,31.93
2023-03-31T15:56:45.538Z,32.00
2023-03-31T15:59:55.806Z,32.45
2023-03-31T16:03:02.016Z,32.23
2023-03-31T16:06:09.853Z,32.59
2023-03-31T16:09:18.921Z,32.64
2023-03-31T16:12:27.161Z,32.63
2023-03-31T16:15:34.693Z,32.89
2023-03-31T16:18:44.645Z,32.85
2023-03-31T16:21:52.942Z,33.02
2023-03-31T16:24:56.964Z,33.13
2023-03-31T16:28:04.544Z,33.27
2023-03-31T16:31:34.742Z,33.51
2023-03-31T16:34:54.172Z,33.51
2023-03-31T16:37:58.103Z,34.06
2023-03-31T16:41:02.082Z,34.11
2023-03-31T16:44:07.765Z,34.30
2023-03-31T16:47:17.537Z,34.60
2023-03-31T16:50:27.865Z,34.79
2023-03-31T16:53:34.070Z,35.01
2023-03-31T16:56:38.086Z,35.14
2023-03-31T16:59:44.530Z,35.28
2023-03-31T17:02:48.843Z,35.39
2023-03-31T17:05:56.853Z,35.57
2023-03-31T17:09:02.446Z,36.00
2023-03-31T17:12:06.948Z,36.43
2023-03-31T17:15:13.703Z,36.85
2023-03-31T17:18:18.153Z,36.73
2023-03-31T17:21:23.180Z,36.80
2023-03-31T17:24:27.753Z,37.21
2023-03-31T17:27:32.447Z,36.96
2023-03-31T17:30:40.087Z,37.64
2023-03-31T17:33:44.514Z,37.66
2023-03-31T17:36:51.703Z,37.77
2023-03-31T17:39:55.682Z,37.83
2023-03-31T17:42:59.725Z,37.78
2023-03-31T17:46:06.588Z,37.85
2023-03-31T17:49:10.461Z,38.15
2023-03-31T17:52:14.983Z,38.35
2023-03-31T17:55:19.250Z,38.91
2023-03-31T17:58:23.680Z,38.93
2023-03-31T18:01:29.087Z,38.95
2023-03-31T18:04:33.169Z,39.43
2023-03-31T18:07:38.495Z,39.28
2023-03-31T18:10:43.313Z,39.27
2023-03-31T18:13:47.168Z,39.11
2023-03-31T18:16:52.743Z,39.27
2023-03-31T18:19:56.678Z,39.52
2023-03-31T18:23:00.717Z,39.69
2023-03-31T18:26:06.998Z,39.63
2023-03-31T18:29:10.998Z,39.59
2023-03-31T18:32:16.721Z,39.94
2023-03-31T18:35:23.661Z,40.27
2023-03-31T18:38:28.418Z,40.22
2023-03-31T18:41:32.478Z,40.29
2023-03-31T18:44:36.758Z,40.22
2023-03-31T18:47:42.395Z,40.84
2023-03-31T18:50:47.078Z,40.54
2023-03-31T18:53:51.068Z,40.85
2023-03-31T18:56:54.949Z,40.71
2023-03-31T18:59:58.899Z,42.76
2023-03-31T19:03:04.467Z,42.29
2023-03-31T19:06:10.662Z,42.36
2023-03-31T19:09:14.763Z,43.91
2023-03-31T19:12:18.709Z,44.82
2023-03-31T19:15:23.166Z,45.65
2023-03-31T19:18:29.815Z,46.73
2023-03-31T19:21:36.660Z,47.45
2023-03-31T19:24:40.666Z,48.64
2023-03-31T19:27:44.907Z,49.46
2023-03-31T19:30:50.268Z,49.63
2023-03-31T19:33:55.627Z,50.75
2023-03-31T19:36:59.587Z,50.90
2023-03-31T19:40:05.394Z,51.64
2023-03-31T19:43:19.519Z,51.57
2023-03-31T19:46:23.583Z,52.10
2023-03-31T19:49:28.994Z,53.06
2023-03-31T19:52:32.932Z,53.73
2023-03-31T19:55:37.883Z,53.41
2023-03-31T19:58:42.335Z,54.72
2023-03-31T20:01:46.411Z,55.02
2023-03-31T20:04:52.007Z,55.72
2023-03-31T20:07:56.985Z,55.89
2023-03-31T20:11:02.066Z,55.36
2023-03-31T20:14:06.462Z,55.27
2023-03-31T20:17:11.962Z,55.48
2023-03-31T20:20:17.605Z,56.48
2023-03-31T20:23:21.561Z,56.69
2023-03-31T20:26:26.820Z,56.29
2023-03-31T20:29:30.744Z,56.60
2023-03-31T20:32:34.723Z,57.00
2023-03-31T20:35:40.134Z,56.72
2023-03-31T20:38:46.509Z,57.33
2023-03-31T20:41:51.510Z,56.77
2023-03-31T20:44:55.440Z,57.51
2023-03-31T20:47:59.373Z,58.55
2023-03-31T20:51:05.209Z,58.23
2023-03-31T20:54:09.373Z,58.46
2023-03-31T20:57:13.296Z,58.83
2023-03-31T21:00:17.946Z,59.75
2023-03-31T21:03:23.206Z,59.18
2023-03-31T21:06:29.421Z,58.56
2023-03-31T21:09:33.344Z,58.68
2023-03-31T21:12:38.223Z,58.42
2023-03-31T21:15:42.165Z,58.89
2023-03-31T21:18:46.166Z,58.38
2023-03-31T21:21:51.605Z,59.08
2023-03-31T21:24:55.626Z,59.90
2023-03-31T21:27:59.546Z,59.22
2023-03-31T21:31:05.450Z,60.62
2023-03-31T21:34:09.490Z,59.86
2023-03-31T21:37:14.787Z,59.78
2023-03-31T21:40:18.775Z,59.97
2023-03-31T21:43:23.226Z,59.86
2023-03-31T21:46:28.822Z,60.19
2023-03-31T21:49:32.925Z,59.97
2023-03-31T21:52:38.290Z,58.82
2023-03-31T21:55:42.488Z,60.41
2023-03-31T21:58:46.649Z,59.37
2023-03-31T22:01:50.551Z,60.04
2023-03-31T22:04:54.573Z,59.34
2023-03-31T22:07:59.891Z,59.50
2023-03-31T22:11:05.306Z,59.47
2023-03-31T22:14:09.266Z,59.08
2023-03-31T22:17:13.085Z,59.06
2023-03-31T22:20:17.025Z,60.39
2023-03-31T22:23:22.486Z,58.71
2023-03-31T22:26:27.406Z,59.17
2023-03-31T22:29:31.723Z,59.24
2023-03-31T22:32:35.691Z,59.51
2023-03-31T22:35:39.702Z,58.57
2023-03-31T22:38:45.213Z,57.83
2023-03-31T22:41:50.687Z,57.71
2023-03-31T22:44:54.629Z,57.91
2023-03-31T22:47:58.306Z,58.31
2023-03-31T22:51:05.162Z,57.84
2023-03-31T22:54:14.543Z,57.47
2023-03-31T22:57:18.448Z,58.70
2023-03-31T23:00:22.911Z,57.67
2023-03-31T23:03:27.359Z,59.15
2023-03-31T23:06:32.342Z,59.63
2023-03-31T23:09:39.029Z,59.53
2023-03-31T23:12:43.161Z,59.37
2023-03-31T23:15:46.832Z,59.46
2023-03-31T23:18:52.059Z,59.59
2023-03-31T23:21:55.939Z,59.84
2023-03-31T23:25:01.945Z,60.36
2023-03-31T23:28:06.202Z,60.27
2023-03-31T23:31:11.415Z,59.44
2023-03-31T23:34:15.275Z,59.73
2023-03-31T23:37:19.446Z,60.05
2023-03-31T23:40:24.920Z,59.42
2023-03-31T23:43:29.034Z,59.91
2023-03-31T23:46:33.878Z,59.74
2023-03-31T23:49:37.649Z,59.20
2023-03-31T23:52:41.439Z,60.01
2023-03-31T23:55:54.868Z,59.82
2023-03-31T23:58:58.664Z,59.23
